sensor_id;sensor_type;location;lat;lon;timestamp;P1;durP1;ratioP1;P2;durP2;ratioP2
49458;SDS011;35354;51.296;16.924;2022-08-19T00:01:52;13.23;;;10.77;;
49458;SDS011;35354;51.296;16.924;2022-08-19T00:04:24;13.23;;;10.48;;
49458;SDS011;35354;51.296;16.924;2022-08-19T00:06:51;12.65;;;10.52;;
49458;SDS011;35354;51.296;16.924;2022-08-19T00:09:18;12.38;;;9.43;;
49458;SDS011;35354;51.296;16.924;2022-08-19T00:11:44;12.57;;;9.95;;
49458;SDS011;35354;51.296;16.924;2022-08-19T00:14:11;15.25;;;10.65;;
49458;SDS011;35354;51.296;16.924;2022-08-19T00:16:39;13.90;;;9.90;;
49458;SDS011;35354;51.296;16.924;2022-08-19T00:19:06;12.90;;;9.50;;
49458;SDS011;35354;51.296;16.924;2022-08-19T00:21:31;12.00;;;10.40;;
49458;SDS011;35354;51.296;16.924;2022-08-19T00:23:57;10.88;;;9.55;;
49458;SDS011;35354;51.296;16.924;2022-08-19T00:26:26;14.13;;;9.70;;
49458;SDS011;35354;51.296;16.924;2022-08-19T00:28:52;11.55;;;9.55;;
49458;SDS011;35354;51.296;16.924;2022-08-19T00:31:18;10.93;;;9.02;;
49458;SDS011;35354;51.296;16.924;2022-08-19T00:33:43;14.60;;;10.25;;
49458;SDS011;35354;51.296;16.924;2022-08-19T00:36:09;10.98;;;9.75;;
49458;SDS011;35354;51.296;16.924;2022-08-19T00:38:35;10.40;;;9.35;;
49458;SDS011;35354;51.296;16.924;2022-08-19T00:41:02;16.75;;;10.65;;
49458;SDS011;35354;51.296;16.924;2022-08-19T00:43:29;12.95;;;9.20;;
49458;SDS011;35354;51.296;16.924;2022-08-19T00:45:55;13.13;;;9.27;;
49458;SDS011;35354;51.296;16.924;2022-08-19T00:48:20;10.30;;;8.90;;
49458;SDS011;35354;51.296;16.924;2022-08-19T00:50:47;10.40;;;8.45;;
49458;SDS011;35354;51.296;16.924;2022-08-19T00:53:14;11.07;;;10.00;;
49458;SDS011;35354;51.296;16.924;2022-08-19T00:55:42;13.45;;;9.32;;
49458;SDS011;35354;51.296;16.924;2022-08-19T00:58:12;10.93;;;8.73;;
49458;SDS011;35354;51.296;16.924;2022-08-19T01:00:40;10.07;;;8.90;;
49458;SDS011;35354;51.296;16.924;2022-08-19T01:03:06;11.52;;;8.98;;
49458;SDS011;35354;51.296;16.924;2022-08-19T01:05:34;16.42;;;9.60;;
49458;SDS011;35354;51.296;16.924;2022-08-19T01:08:02;14.68;;;10.35;;
49458;SDS011;35354;51.296;16.924;2022-08-19T01:10:30;11.90;;;8.85;;
49458;SDS011;35354;51.296;16.924;2022-08-19T01:12:58;12.60;;;9.68;;
49458;SDS011;35354;51.296;16.924;2022-08-19T01:15:27;12.70;;;9.27;;
49458;SDS011;35354;51.296;16.924;2022-08-19T01:20:23;11.63;;;8.88;;
49458;SDS011;35354;51.296;16.924;2022-08-19T01:22:50;11.35;;;9.30;;
49458;SDS011;35354;51.296;16.924;2022-08-19T01:25:22;10.95;;;9.80;;
49458;SDS011;35354;51.296;16.924;2022-08-19T01:27:52;9.93;;;8.90;;
49458;SDS011;35354;51.296;16.924;2022-08-19T01:30:22;10.23;;;9.07;;
49458;SDS011;35354;51.296;16.924;2022-08-19T01:32:51;14.23;;;9.95;;
49458;SDS011;35354;51.296;16.924;2022-08-19T01:35:18;12.23;;;10.30;;
49458;SDS011;35354;51.296;16.924;2022-08-19T01:37:49;12.35;;;8.90;;
49458;SDS011;35354;51.296;16.924;2022-08-19T01:40:20;12.50;;;9.30;;
49458;SDS011;35354;51.296;16.924;2022-08-19T01:42:47;11.13;;;9.43;;
49458;SDS011;35354;51.296;16.924;2022-08-19T01:45:13;12.25;;;10.95;;
49458;SDS011;35354;51.296;16.924;2022-08-19T01:47:39;11.77;;;10.13;;
49458;SDS011;35354;51.296;16.924;2022-08-19T01:50:07;10.43;;;9.13;;
49458;SDS011;35354;51.296;16.924;2022-08-19T01:52:38;10.03;;;8.87;;
49458;SDS011;35354;51.296;16.924;2022-08-19T01:57:31;13.10;;;10.00;;
49458;SDS011;35354;51.296;16.924;2022-08-19T01:59:57;10.15;;;9.25;;
49458;SDS011;35354;51.296;16.924;2022-08-19T02:02:24;10.65;;;9.55;;
49458;SDS011;35354;51.296;16.924;2022-08-19T02:04:49;15.73;;;9.95;;
49458;SDS011;35354;51.296;16.924;2022-08-19T02:07:15;12.88;;;10.00;;
49458;SDS011;35354;51.296;16.924;2022-08-19T02:09:43;10.80;;;9.70;;
49458;SDS011;35354;51.296;16.924;2022-08-19T02:12:08;14.25;;;10.25;;
49458;SDS011;35354;51.296;16.924;2022-08-19T02:14:35;10.70;;;9.68;;
49458;SDS011;35354;51.296;16.924;2022-08-19T02:17:01;13.18;;;9.77;;
49458;SDS011;35354;51.296;16.924;2022-08-19T02:19:27;12.35;;;10.05;;
49458;SDS011;35354;51.296;16.924;2022-08-19T02:21:52;11.25;;;9.10;;
49458;SDS011;35354;51.296;16.924;2022-08-19T02:24:18;13.13;;;8.98;;
49458;SDS011;35354;51.296;16.924;2022-08-19T02:26:43;12.15;;;10.60;;
49458;SDS011;35354;51.296;16.924;2022-08-19T02:29:09;10.45;;;9.45;;
49458;SDS011;35354;51.296;16.924;2022-08-19T02:31:34;11.85;;;9.50;;
49458;SDS011;35354;51.296;16.924;2022-08-19T02:33:59;11.88;;;9.80;;
49458;SDS011;35354;51.296;16.924;2022-08-19T02:36:25;14.00;;;9.90;;
49458;SDS011;35354;51.296;16.924;2022-08-19T02:38:51;11.00;;;9.90;;
49458;SDS011;35354;51.296;16.924;2022-08-19T02:41:18;16.35;;;9.60;;
49458;SDS011;35354;51.296;16.924;2022-08-19T02:43:47;15.18;;;9.25;;
49458;SDS011;35354;51.296;16.924;2022-08-19T02:46:17;12.07;;;10.88;;
49458;SDS011;35354;51.296;16.924;2022-08-19T02:48:48;11.35;;;9.57;;
49458;SDS011;35354;51.296;16.924;2022-08-19T02:51:15;11.60;;;9.90;;
49458;SDS011;35354;51.296;16.924;2022-08-19T02:53:42;11.75;;;10.43;;
49458;SDS011;35354;51.296;16.924;2022-08-19T02:56:08;12.57;;;10.45;;
49458;SDS011;35354;51.296;16.924;2022-08-19T02:58:33;11.80;;;10.23;;
49458;SDS011;35354;51.296;16.924;2022-08-19T03:00:59;11.10;;;10.00;;
49458;SDS011;35354;51.296;16.924;2022-08-19T03:03:24;12.30;;;10.35;;
49458;SDS011;35354;51.296;16.924;2022-08-19T03:05:50;12.13;;;10.10;;
49458;SDS011;35354;51.296;16.924;2022-08-19T03:08:15;13.63;;;10.98;;
49458;SDS011;35354;51.296;16.924;2022-08-19T03:10:42;14.23;;;10.60;;
49458;SDS011;35354;51.296;16.924;2022-08-19T03:13:09;13.38;;;10.63;;
49458;SDS011;35354;51.296;16.924;2022-08-19T03:15:39;12.65;;;10.93;;
49458;SDS011;35354;51.296;16.924;2022-08-19T03:18:05;13.68;;;10.85;;
49458;SDS011;35354;51.296;16.924;2022-08-19T03:20:31;16.98;;;12.60;;
49458;SDS011;35354;51.296;16.924;2022-08-19T03:22:56;13.93;;;10.70;;
49458;SDS011;35354;51.296;16.924;2022-08-19T03:25:22;16.60;;;11.52;;
49458;SDS011;35354;51.296;16.924;2022-08-19T03:27:47;12.18;;;10.88;;
49458;SDS011;35354;51.296;16.924;2022-08-19T03:30:13;13.50;;;11.43;;
49458;SDS011;35354;51.296;16.924;2022-08-19T03:32:39;12.10;;;10.52;;
49458;SDS011;35354;51.296;16.924;2022-08-19T03:35:04;11.48;;;10.35;;
49458;SDS011;35354;51.296;16.924;2022-08-19T03:37:31;14.55;;;11.10;;
49458;SDS011;35354;51.296;16.924;2022-08-19T03:39:56;14.68;;;12.80;;
49458;SDS011;35354;51.296;16.924;2022-08-19T03:42:21;13.48;;;11.35;;
49458;SDS011;35354;51.296;16.924;2022-08-19T03:44:47;12.65;;;11.35;;
49458;SDS011;35354;51.296;16.924;2022-08-19T03:47:12;14.23;;;11.50;;
49458;SDS011;35354;51.296;16.924;2022-08-19T03:49:41;15.23;;;12.68;;
49458;SDS011;35354;51.296;16.924;2022-08-19T03:52:07;18.98;;;11.90;;
49458;SDS011;35354;51.296;16.924;2022-08-19T03:54:35;14.00;;;12.32;;
49458;SDS011;35354;51.296;16.924;2022-08-19T03:57:02;13.85;;;11.35;;
49458;SDS011;35354;51.296;16.924;2022-08-19T03:59:30;12.52;;;11.10;;
49458;SDS011;35354;51.296;16.924;2022-08-19T04:01:58;12.70;;;11.40;;
49458;SDS011;35354;51.296;16.924;2022-08-19T04:04:25;13.88;;;11.48;;
49458;SDS011;35354;51.296;16.924;2022-08-19T04:06:51;14.10;;;12.70;;
49458;SDS011;35354;51.296;16.924;2022-08-19T04:09:17;14.95;;;11.82;;
49458;SDS011;35354;51.296;16.924;2022-08-19T04:11:46;12.98;;;11.63;;
49458;SDS011;35354;51.296;16.924;2022-08-19T04:14:21;14.98;;;11.85;;
49458;SDS011;35354;51.296;16.924;2022-08-19T04:16:49;19.35;;;11.98;;
49458;SDS011;35354;51.296;16.924;2022-08-19T04:19:15;13.75;;;12.30;;
49458;SDS011;35354;51.296;16.924;2022-08-19T04:21:43;18.75;;;13.18;;
49458;SDS011;35354;51.296;16.924;2022-08-19T04:24:10;14.73;;;11.90;;
49458;SDS011;35354;51.296;16.924;2022-08-19T04:26:36;12.77;;;11.60;;
49458;SDS011;35354;51.296;16.924;2022-08-19T04:29:06;14.50;;;11.95;;
49458;SDS011;35354;51.296;16.924;2022-08-19T04:31:36;13.13;;;11.82;;
49458;SDS011;35354;51.296;16.924;2022-08-19T04:34:03;14.52;;;13.00;;
49458;SDS011;35354;51.296;16.924;2022-08-19T04:36:32;13.30;;;11.98;;
49458;SDS011;35354;51.296;16.924;2022-08-19T04:39:00;17.17;;;12.05;;
49458;SDS011;35354;51.296;16.924;2022-08-19T04:41:32;18.08;;;12.52;;
49458;SDS011;35354;51.296;16.924;2022-08-19T04:44:17;14.45;;;12.25;;
49458;SDS011;35354;51.296;16.924;2022-08-19T04:46:44;16.83;;;12.38;;
49458;SDS011;35354;51.296;16.924;2022-08-19T04:49:10;14.35;;;11.95;;
49458;SDS011;35354;51.296;16.924;2022-08-19T04:51:36;15.43;;;11.82;;
49458;SDS011;35354;51.296;16.924;2022-08-19T04:54:02;18.38;;;11.60;;
49458;SDS011;35354;51.296;16.924;2022-08-19T04:56:28;15.82;;;12.50;;
49458;SDS011;35354;51.296;16.924;2022-08-19T04:58:53;16.02;;;12.57;;
49458;SDS011;35354;51.296;16.924;2022-08-19T05:01:24;18.58;;;12.95;;
49458;SDS011;35354;51.296;16.924;2022-08-19T05:03:53;15.88;;;13.43;;
49458;SDS011;35354;51.296;16.924;2022-08-19T05:06:19;14.35;;;12.85;;
49458;SDS011;35354;51.296;16.924;2022-08-19T05:08:46;19.23;;;13.48;;
49458;SDS011;35354;51.296;16.924;2022-08-19T05:11:19;14.73;;;12.75;;
49458;SDS011;35354;51.296;16.924;2022-08-19T05:13:49;16.92;;;12.95;;
49458;SDS011;35354;51.296;16.924;2022-08-19T05:16:15;14.20;;;12.77;;
49458;SDS011;35354;51.296;16.924;2022-08-19T05:18:42;14.57;;;12.55;;
49458;SDS011;35354;51.296;16.924;2022-08-19T05:21:27;15.10;;;13.05;;
49458;SDS011;35354;51.296;16.924;2022-08-19T05:24:12;16.02;;;13.45;;
49458;SDS011;35354;51.296;16.924;2022-08-19T05:26:40;14.52;;;13.02;;
49458;SDS011;35354;51.296;16.924;2022-08-19T05:29:07;18.02;;;13.20;;
49458;SDS011;35354;51.296;16.924;2022-08-19T05:31:33;16.08;;;12.30;;
49458;SDS011;35354;51.296;16.924;2022-08-19T05:34:00;15.60;;;13.23;;
49458;SDS011;35354;51.296;16.924;2022-08-19T05:36:26;18.83;;;13.27;;
49458;SDS011;35354;51.296;16.924;2022-08-19T05:38:53;15.95;;;13.13;;
49458;SDS011;35354;51.296;16.924;2022-08-19T05:41:20;14.45;;;12.95;;
49458;SDS011;35354;51.296;16.924;2022-08-19T05:43:48;18.00;;;13.18;;
49458;SDS011;35354;51.296;16.924;2022-08-19T05:46:18;19.27;;;13.15;;
49458;SDS011;35354;51.296;16.924;2022-08-19T05:48:45;19.80;;;13.88;;
49458;SDS011;35354;51.296;16.924;2022-08-19T05:51:10;21.27;;;14.07;;
49458;SDS011;35354;51.296;16.924;2022-08-19T05:53:36;15.85;;;13.30;;
49458;SDS011;35354;51.296;16.924;2022-08-19T05:56:09;14.98;;;12.77;;
49458;SDS011;35354;51.296;16.924;2022-08-19T05:58:40;14.40;;;12.90;;
49458;SDS011;35354;51.296;16.924;2022-08-19T06:01:17;15.23;;;12.18;;
49458;SDS011;35354;51.296;16.924;2022-08-19T06:03:43;14.45;;;12.68;;
49458;SDS011;35354;51.296;16.924;2022-08-19T06:06:11;16.23;;;13.18;;
49458;SDS011;35354;51.296;16.924;2022-08-19T06:08:38;18.23;;;14.65;;
49458;SDS011;35354;51.296;16.924;2022-08-19T06:13:43;13.57;;;12.18;;
49458;SDS011;35354;51.296;16.924;2022-08-19T06:16:12;15.88;;;11.82;;
49458;SDS011;35354;51.296;16.924;2022-08-19T06:18:39;14.25;;;11.25;;
49458;SDS011;35354;51.296;16.924;2022-08-19T06:21:04;16.30;;;12.52;;
49458;SDS011;35354;51.296;16.924;2022-08-19T06:23:30;13.20;;;11.43;;
49458;SDS011;35354;51.296;16.924;2022-08-19T06:25:55;12.75;;;11.35;;
49458;SDS011;35354;51.296;16.924;2022-08-19T06:28:21;14.38;;;11.20;;
49458;SDS011;35354;51.296;16.924;2022-08-19T06:30:48;12.63;;;11.10;;
49458;SDS011;35354;51.296;16.924;2022-08-19T06:33:14;13.07;;;11.88;;
49458;SDS011;35354;51.296;16.924;2022-08-19T06:35:39;13.65;;;12.23;;
49458;SDS011;35354;51.296;16.924;2022-08-19T06:38:06;13.52;;;10.88;;
49458;SDS011;35354;51.296;16.924;2022-08-19T06:40:32;13.30;;;11.90;;
49458;SDS011;35354;51.296;16.924;2022-08-19T06:42:57;13.93;;;12.13;;
49458;SDS011;35354;51.296;16.924;2022-08-19T06:45:24;14.30;;;10.85;;
49458;SDS011;35354;51.296;16.924;2022-08-19T06:47:51;14.73;;;11.30;;
49458;SDS011;35354;51.296;16.924;2022-08-19T06:52:46;17.23;;;12.57;;
49458;SDS011;35354;51.296;16.924;2022-08-19T06:55:12;14.23;;;10.80;;
49458;SDS011;35354;51.296;16.924;2022-08-19T06:57:37;13.73;;;11.48;;
49458;SDS011;35354;51.296;16.924;2022-08-19T07:00:04;15.15;;;10.77;;
49458;SDS011;35354;51.296;16.924;2022-08-19T07:02:33;17.98;;;11.20;;
49458;SDS011;35354;51.296;16.924;2022-08-19T07:05:02;11.93;;;10.73;;
49458;SDS011;35354;51.296;16.924;2022-08-19T07:07:28;17.13;;;11.45;;
49458;SDS011;35354;51.296;16.924;2022-08-19T07:09:53;10.18;;;8.95;;
49458;SDS011;35354;51.296;16.924;2022-08-19T07:12:19;16.90;;;9.50;;
49458;SDS011;35354;51.296;16.924;2022-08-19T07:14:44;13.45;;;8.70;;
49458;SDS011;35354;51.296;16.924;2022-08-19T07:17:13;9.93;;;8.60;;
49458;SDS011;35354;51.296;16.924;2022-08-19T07:19:39;11.65;;;8.57;;
49458;SDS011;35354;51.296;16.924;2022-08-19T07:22:06;11.40;;;9.07;;
49458;SDS011;35354;51.296;16.924;2022-08-19T07:24:33;10.00;;;7.70;;
49458;SDS011;35354;51.296;16.924;2022-08-19T07:27:00;9.32;;;7.70;;
49458;SDS011;35354;51.296;16.924;2022-08-19T07:29:28;10.93;;;7.75;;
49458;SDS011;35354;51.296;16.924;2022-08-19T07:31:58;13.48;;;7.18;;
49458;SDS011;35354;51.296;16.924;2022-08-19T07:34:26;10.70;;;6.70;;
49458;SDS011;35354;51.296;16.924;2022-08-19T07:36:53;7.13;;;6.40;;
49458;SDS011;35354;51.296;16.924;2022-08-19T07:39:22;9.35;;;7.00;;
49458;SDS011;35354;51.296;16.924;2022-08-19T07:41:49;7.97;;;5.82;;
49458;SDS011;35354;51.296;16.924;2022-08-19T07:44:16;8.55;;;5.95;;
49458;SDS011;35354;51.296;16.924;2022-08-19T07:46:45;9.15;;;6.75;;
49458;SDS011;35354;51.296;16.924;2022-08-19T07:49:14;10.18;;;6.45;;
49458;SDS011;35354;51.296;16.924;2022-08-19T07:51:44;7.50;;;6.07;;
49458;SDS011;35354;51.296;16.924;2022-08-19T07:54:11;8.60;;;6.10;;
49458;SDS011;35354;51.296;16.924;2022-08-19T07:56:37;8.32;;;5.95;;
49458;SDS011;35354;51.296;16.924;2022-08-19T07:59:02;7.07;;;5.30;;
49458;SDS011;35354;51.296;16.924;2022-08-19T08:01:28;7.80;;;6.20;;
49458;SDS011;35354;51.296;16.924;2022-08-19T08:03:54;7.25;;;6.13;;
49458;SDS011;35354;51.296;16.924;2022-08-19T08:06:39;9.02;;;6.07;;
49458;SDS011;35354;51.296;16.924;2022-08-19T08:09:24;6.45;;;5.70;;
49458;SDS011;35354;51.296;16.924;2022-08-19T08:11:54;8.45;;;5.78;;
49458;SDS011;35354;51.296;16.924;2022-08-19T08:14:29;6.55;;;5.47;;
49458;SDS011;35354;51.296;16.924;2022-08-19T08:16:58;5.28;;;4.70;;
49458;SDS011;35354;51.296;16.924;2022-08-19T08:19:25;6.30;;;5.28;;
49458;SDS011;35354;51.296;16.924;2022-08-19T08:21:52;6.32;;;5.72;;
49458;SDS011;35354;51.296;16.924;2022-08-19T08:24:19;6.13;;;5.45;;
49458;SDS011;35354;51.296;16.924;2022-08-19T08:26:45;5.80;;;5.20;;
49458;SDS011;35354;51.296;16.924;2022-08-19T08:29:11;6.57;;;5.57;;
49458;SDS011;35354;51.296;16.924;2022-08-19T08:31:38;7.93;;;5.47;;
49458;SDS011;35354;51.296;16.924;2022-08-19T08:34:04;8.98;;;6.00;;
49458;SDS011;35354;51.296;16.924;2022-08-19T08:36:30;8.00;;;6.00;;
49458;SDS011;35354;51.296;16.924;2022-08-19T08:38:58;7.78;;;5.90;;
49458;SDS011;35354;51.296;16.924;2022-08-19T08:44:27;6.82;;;6.13;;
49458;SDS011;35354;51.296;16.924;2022-08-19T08:47:04;6.93;;;5.72;;
49458;SDS011;35354;51.296;16.924;2022-08-19T08:49:51;6.72;;;6.07;;
49458;SDS011;35354;51.296;16.924;2022-08-19T08:52:23;9.45;;;6.50;;
49458;SDS011;35354;51.296;16.924;2022-08-19T08:54:54;7.50;;;6.30;;
49458;SDS011;35354;51.296;16.924;2022-08-19T08:57:32;7.40;;;6.70;;
49458;SDS011;35354;51.296;16.924;2022-08-19T09:00:04;9.50;;;6.53;;
49458;SDS011;35354;51.296;16.924;2022-08-19T09:02:33;9.60;;;6.22;;
49458;SDS011;35354;51.296;16.924;2022-08-19T09:04:59;10.35;;;6.68;;
49458;SDS011;35354;51.296;16.924;2022-08-19T09:15:28;9.57;;;6.80;;
49458;SDS011;35354;51.296;16.924;2022-08-19T09:18:00;9.95;;;7.38;;
49458;SDS011;35354;51.296;16.924;2022-08-19T09:20:28;14.65;;;7.15;;
49458;SDS011;35354;51.296;16.924;2022-08-19T09:22:53;7.97;;;7.15;;
49458;SDS011;35354;51.296;16.924;2022-08-19T09:25:20;10.27;;;7.28;;
49458;SDS011;35354;51.296;16.924;2022-08-19T09:27:48;9.82;;;7.20;;
49458;SDS011;35354;51.296;16.924;2022-08-19T09:30:21;9.27;;;6.57;;
49458;SDS011;35354;51.296;16.924;2022-08-19T09:32:51;8.50;;;6.55;;
49458;SDS011;35354;51.296;16.924;2022-08-19T09:35:18;9.60;;;6.35;;
49458;SDS011;35354;51.296;16.924;2022-08-19T09:37:47;9.48;;;6.57;;
49458;SDS011;35354;51.296;16.924;2022-08-19T09:40:14;7.38;;;6.63;;
49458;SDS011;35354;51.296;16.924;2022-08-19T09:42:40;9.10;;;6.57;;
49458;SDS011;35354;51.296;16.924;2022-08-19T09:45:08;9.80;;;6.78;;
49458;SDS011;35354;51.296;16.924;2022-08-19T09:47:34;9.20;;;6.18;;
49458;SDS011;35354;51.296;16.924;2022-08-19T09:50:03;12.40;;;6.32;;
49458;SDS011;35354;51.296;16.924;2022-08-19T09:52:30;11.70;;;6.80;;
49458;SDS011;35354;51.296;16.924;2022-08-19T09:54:56;6.88;;;6.18;;
49458;SDS011;35354;51.296;16.924;2022-08-19T09:57:21;8.13;;;6.03;;
49458;SDS011;35354;51.296;16.924;2022-08-19T09:59:47;6.53;;;5.88;;
49458;SDS011;35354;51.296;16.924;2022-08-19T10:02:12;8.52;;;7.07;;
49458;SDS011;35354;51.296;16.924;2022-08-19T10:04:38;9.30;;;6.45;;
49458;SDS011;35354;51.296;16.924;2022-08-19T10:07:22;7.07;;;5.95;;
49458;SDS011;35354;51.296;16.924;2022-08-19T10:09:47;6.60;;;5.97;;
49458;SDS011;35354;51.296;16.924;2022-08-19T10:12:13;10.68;;;6.18;;
49458;SDS011;35354;51.296;16.924;2022-08-19T10:14:40;14.95;;;6.97;;
49458;SDS011;35354;51.296;16.924;2022-08-19T10:17:06;8.57;;;6.72;;
49458;SDS011;35354;51.296;16.924;2022-08-19T10:19:31;7.32;;;6.07;;
49458;SDS011;35354;51.296;16.924;2022-08-19T10:22:02;11.38;;;7.28;;
49458;SDS011;35354;51.296;16.924;2022-08-19T10:24:29;9.50;;;6.63;;
49458;SDS011;35354;51.296;16.924;2022-08-19T10:26:56;10.57;;;7.13;;
49458;SDS011;35354;51.296;16.924;2022-08-19T10:29:22;9.32;;;6.47;;
49458;SDS011;35354;51.296;16.924;2022-08-19T10:31:48;8.73;;;6.22;;
49458;SDS011;35354;51.296;16.924;2022-08-19T10:34:14;10.48;;;6.22;;
49458;SDS011;35354;51.296;16.924;2022-08-19T10:36:39;8.35;;;6.30;;
49458;SDS011;35354;51.296;16.924;2022-08-19T10:39:08;10.73;;;7.80;;
49458;SDS011;35354;51.296;16.924;2022-08-19T10:41:36;12.82;;;7.07;;
49458;SDS011;35354;51.296;16.924;2022-08-19T10:44:04;10.30;;;7.30;;
49458;SDS011;35354;51.296;16.924;2022-08-19T10:46:32;9.95;;;6.55;;
49458;SDS011;35354;51.296;16.924;2022-08-19T10:49:02;7.65;;;6.07;;
49458;SDS011;35354;51.296;16.924;2022-08-19T10:51:30;8.00;;;6.22;;
49458;SDS011;35354;51.296;16.924;2022-08-19T10:54:16;9.57;;;6.68;;
49458;SDS011;35354;51.296;16.924;2022-08-19T10:56:42;11.35;;;6.93;;
49458;SDS011;35354;51.296;16.924;2022-08-19T10:59:17;9.45;;;6.57;;
49458;SDS011;35354;51.296;16.924;2022-08-19T11:01:45;12.90;;;7.93;;
49458;SDS011;35354;51.296;16.924;2022-08-19T11:04:11;10.10;;;8.10;;
49458;SDS011;35354;51.296;16.924;2022-08-19T11:06:38;13.15;;;8.88;;
49458;SDS011;35354;51.296;16.924;2022-08-19T11:09:06;10.38;;;9.23;;
49458;SDS011;35354;51.296;16.924;2022-08-19T11:11:32;14.27;;;8.98;;
49458;SDS011;35354;51.296;16.924;2022-08-19T11:14:06;13.52;;;8.20;;
49458;SDS011;35354;51.296;16.924;2022-08-19T11:16:33;10.50;;;7.57;;
49458;SDS011;35354;51.296;16.924;2022-08-19T11:18:58;9.52;;;7.70;;
49458;SDS011;35354;51.296;16.924;2022-08-19T11:21:26;12.55;;;7.85;;
49458;SDS011;35354;51.296;16.924;2022-08-19T11:23:57;17.23;;;8.68;;
49458;SDS011;35354;51.296;16.924;2022-08-19T11:26:24;14.48;;;9.18;;
49458;SDS011;35354;51.296;16.924;2022-08-19T11:28:50;14.95;;;8.55;;
49458;SDS011;35354;51.296;16.924;2022-08-19T11:31:19;11.50;;;8.07;;
49458;SDS011;35354;51.296;16.924;2022-08-19T11:33:46;8.20;;;6.97;;
49458;SDS011;35354;51.296;16.924;2022-08-19T11:36:15;12.50;;;8.40;;
49458;SDS011;35354;51.296;16.924;2022-08-19T11:38:41;11.30;;;7.78;;
49458;SDS011;35354;51.296;16.924;2022-08-19T11:41:07;9.68;;;7.80;;
49458;SDS011;35354;51.296;16.924;2022-08-19T11:43:33;12.55;;;8.32;;
49458;SDS011;35354;51.296;16.924;2022-08-19T11:45:59;10.82;;;8.07;;
49458;SDS011;35354;51.296;16.924;2022-08-19T11:48:31;7.68;;;6.88;;
49458;SDS011;35354;51.296;16.924;2022-08-19T11:50:57;11.43;;;7.45;;
49458;SDS011;35354;51.296;16.924;2022-08-19T11:53:22;9.55;;;6.45;;
49458;SDS011;35354;51.296;16.924;2022-08-19T11:55:48;7.43;;;5.93;;
49458;SDS011;35354;51.296;16.924;2022-08-19T11:58:14;9.93;;;6.63;;
49458;SDS011;35354;51.296;16.924;2022-08-19T12:00:41;12.57;;;7.30;;
49458;SDS011;35354;51.296;16.924;2022-08-19T12:03:10;9.18;;;7.70;;
49458;SDS011;35354;51.296;16.924;2022-08-19T12:05:36;10.48;;;6.57;;
49458;SDS011;35354;51.296;16.924;2022-08-19T12:08:02;8.98;;;5.55;;
49458;SDS011;35354;51.296;16.924;2022-08-19T12:10:28;9.07;;;6.20;;
49458;SDS011;35354;51.296;16.924;2022-08-19T12:12:55;7.07;;;4.93;;
49458;SDS011;35354;51.296;16.924;2022-08-19T12:15:20;8.18;;;5.05;;
49458;SDS011;35354;51.296;16.924;2022-08-19T12:17:46;8.98;;;5.45;;
49458;SDS011;35354;51.296;16.924;2022-08-19T12:20:11;10.43;;;5.10;;
49458;SDS011;35354;51.296;16.924;2022-08-19T12:22:40;7.20;;;5.00;;
49458;SDS011;35354;51.296;16.924;2022-08-19T12:25:06;9.57;;;5.30;;
49458;SDS011;35354;51.296;16.924;2022-08-19T12:27:32;5.75;;;4.25;;
49458;SDS011;35354;51.296;16.924;2022-08-19T12:29:58;9.75;;;4.88;;
49458;SDS011;35354;51.296;16.924;2022-08-19T12:32:26;7.13;;;5.00;;
49458;SDS011;35354;51.296;16.924;2022-08-19T12:34:51;12.48;;;4.97;;
49458;SDS011;35354;51.296;16.924;2022-08-19T12:37:17;8.75;;;4.68;;
49458;SDS011;35354;51.296;16.924;2022-08-19T12:39:42;6.57;;;4.82;;
49458;SDS011;35354;51.296;16.924;2022-08-19T12:42:09;7.25;;;4.78;;
49458;SDS011;35354;51.296;16.924;2022-08-19T12:44:37;5.95;;;4.70;;
49458;SDS011;35354;51.296;16.924;2022-08-19T12:47:04;5.15;;;4.45;;
49458;SDS011;35354;51.296;16.924;2022-08-19T12:49:30;8.50;;;4.55;;
49458;SDS011;35354;51.296;16.924;2022-08-19T12:51:58;5.03;;;4.40;;
49458;SDS011;35354;51.296;16.924;2022-08-19T12:54:25;8.70;;;4.72;;
49458;SDS011;35354;51.296;16.924;2022-08-19T12:56:50;8.50;;;4.88;;
49458;SDS011;35354;51.296;16.924;2022-08-19T12:59:16;6.40;;;4.97;;
49458;SDS011;35354;51.296;16.924;2022-08-19T13:01:43;6.53;;;4.93;;
49458;SDS011;35354;51.296;16.924;2022-08-19T13:04:09;5.38;;;4.88;;
49458;SDS011;35354;51.296;16.924;2022-08-19T13:06:35;9.15;;;5.28;;
49458;SDS011;35354;51.296;16.924;2022-08-19T13:09:01;10.75;;;6.03;;
49458;SDS011;35354;51.296;16.924;2022-08-19T13:11:26;13.18;;;5.47;;
49458;SDS011;35354;51.296;16.924;2022-08-19T13:13:57;12.50;;;5.68;;
49458;SDS011;35354;51.296;16.924;2022-08-19T13:16:22;7.43;;;5.25;;
49458;SDS011;35354;51.296;16.924;2022-08-19T13:18:48;10.32;;;5.85;;
49458;SDS011;35354;51.296;16.924;2022-08-19T13:21:17;6.18;;;5.20;;
49458;SDS011;35354;51.296;16.924;2022-08-19T13:23:44;7.82;;;5.15;;
49458;SDS011;35354;51.296;16.924;2022-08-19T13:26:11;9.60;;;5.63;;
49458;SDS011;35354;51.296;16.924;2022-08-19T13:28:37;7.25;;;5.82;;
49458;SDS011;35354;51.296;16.924;2022-08-19T13:31:24;7.28;;;5.88;;
49458;SDS011;35354;51.296;16.924;2022-08-19T13:34:09;7.22;;;5.60;;
49458;SDS011;35354;51.296;16.924;2022-08-19T13:36:35;6.55;;;5.28;;
49458;SDS011;35354;51.296;16.924;2022-08-19T13:39:02;7.13;;;6.15;;
49458;SDS011;35354;51.296;16.924;2022-08-19T13:41:48;6.82;;;5.28;;
49458;SDS011;35354;51.296;16.924;2022-08-19T13:44:15;7.82;;;5.70;;
49458;SDS011;35354;51.296;16.924;2022-08-19T13:46:45;8.02;;;5.57;;
49458;SDS011;35354;51.296;16.924;2022-08-19T13:49:13;8.07;;;5.85;;
49458;SDS011;35354;51.296;16.924;2022-08-19T13:51:40;6.50;;;5.57;;
49458;SDS011;35354;51.296;16.924;2022-08-19T13:54:07;11.10;;;6.30;;
49458;SDS011;35354;51.296;16.924;2022-08-19T13:56:33;8.77;;;5.88;;
49458;SDS011;35354;51.296;16.924;2022-08-19T13:58:59;7.75;;;6.10;;
49458;SDS011;35354;51.296;16.924;2022-08-19T14:01:25;6.65;;;5.95;;
49458;SDS011;35354;51.296;16.924;2022-08-19T14:03:51;8.50;;;5.80;;
49458;SDS011;35354;51.296;16.924;2022-08-19T14:06:17;6.50;;;5.55;;
49458;SDS011;35354;51.296;16.924;2022-08-19T14:08:43;6.32;;;5.45;;
49458;SDS011;35354;51.296;16.924;2022-08-19T14:11:09;6.47;;;5.75;;
49458;SDS011;35354;51.296;16.924;2022-08-19T14:13:35;6.97;;;5.72;;
49458;SDS011;35354;51.296;16.924;2022-08-19T14:16:00;8.02;;;5.65;;
49458;SDS011;35354;51.296;16.924;2022-08-19T14:18:26;6.53;;;5.38;;
49458;SDS011;35354;51.296;16.924;2022-08-19T14:20:51;10.10;;;5.50;;
49458;SDS011;35354;51.296;16.924;2022-08-19T14:23:17;6.05;;;4.93;;
49458;SDS011;35354;51.296;16.924;2022-08-19T14:25:43;6.82;;;5.05;;
49458;SDS011;35354;51.296;16.924;2022-08-19T14:28:09;6.28;;;5.18;;
49458;SDS011;35354;51.296;16.924;2022-08-19T14:30:35;6.22;;;5.57;;
49458;SDS011;35354;51.296;16.924;2022-08-19T14:33:03;7.18;;;5.88;;
49458;SDS011;35354;51.296;16.924;2022-08-19T14:35:31;10.85;;;6.47;;
49458;SDS011;35354;51.296;16.924;2022-08-19T14:38:01;9.45;;;6.20;;
49458;SDS011;35354;51.296;16.924;2022-08-19T14:40:30;8.68;;;6.20;;
49458;SDS011;35354;51.296;16.924;2022-08-19T14:42:57;7.50;;;6.15;;
49458;SDS011;35354;51.296;16.924;2022-08-19T14:45:29;7.80;;;6.47;;